sensor_id;sensor_type;location;lat;lon;timestamp;P1;durP1;ratioP1;P2;durP2;ratioP2
13720;SDS011;6932;51.438;5.470;2024-03-23T00:54:08;7.60;;;2.20;;
13720;SDS011;6932;51.438;5.470;2024-03-23T00:56:34;6.70;;;2.47;;
13720;SDS011;6932;51.438;5.470;2024-03-23T00:58:59;6.73;;;2.53;;
13720;SDS011;6932;51.438;5.470;2024-03-23T01:01:25;7.00;;;2.60;;
13720;SDS011;6932;51.438;5.470;2024-03-23T01:03:51;6.80;;;2.40;;
13720;SDS011;6932;51.438;5.470;2024-03-23T01:06:16;5.93;;;2.77;;
13720;SDS011;6932;51.438;5.470;2024-03-23T01:08:42;5.97;;;2.60;;
13720;SDS011;6932;51.438;5.470;2024-03-23T01:11:08;7.50;;;2.53;;
13720;SDS011;6932;51.438;5.470;2024-03-23T01:13:33;6.90;;;2.70;;
13720;SDS011;6932;51.438;5.470;2024-03-23T01:15:59;7.10;;;2.57;;
13720;SDS011;6932;51.438;5.470;2024-03-23T01:18:25;7.20;;;2.80;;
13720;SDS011;6932;51.438;5.470;2024-03-23T01:20:54;5.27;;;2.43;;
13720;SDS011;6932;51.438;5.470;2024-03-23T01:23:20;5.63;;;2.47;;
13720;SDS011;6932;51.438;5.470;2024-03-23T01:25:55;7.53;;;2.67;;
13720;SDS011;6932;51.438;5.470;2024-03-23T01:28:21;9.47;;;2.70;;
13720;SDS011;6932;51.438;5.470;2024-03-23T01:30:47;4.50;;;2.40;;
13720;SDS011;6932;51.438;5.470;2024-03-23T01:33:13;5.93;;;2.30;;
13720;SDS011;6932;51.438;5.470;2024-03-23T01:35:39;8.47;;;2.67;;
13720;SDS011;6932;51.438;5.470;2024-03-23T01:38:05;7.73;;;2.33;;
13720;SDS011;6932;51.438;5.470;2024-03-23T01:40:32;5.53;;;2.30;;
13720;SDS011;6932;51.438;5.470;2024-03-23T01:42:58;7.00;;;2.60;;
13720;SDS011;6932;51.438;5.470;2024-03-23T01:45:29;7.13;;;2.20;;
13720;SDS011;6932;51.438;5.470;2024-03-23T01:47:56;4.87;;;2.30;;
13720;SDS011;6932;51.438;5.470;2024-03-23T01:50:22;8.50;;;2.80;;
13720;SDS011;6932;51.438;5.470;2024-03-23T01:52:49;6.90;;;2.70;;
13720;SDS011;6932;51.438;5.470;2024-03-23T01:55:15;8.67;;;2.80;;
13720;SDS011;6932;51.438;5.470;2024-03-23T01:57:41;5.90;;;2.43;;
13720;SDS011;6932;51.438;5.470;2024-03-23T02:00:07;7.07;;;2.43;;
13720;SDS011;6932;51.438;5.470;2024-03-23T02:02:46;7.07;;;2.60;;
13720;SDS011;6932;51.438;5.470;2024-03-23T02:05:12;7.20;;;2.67;;
13720;SDS011;6932;51.438;5.470;2024-03-23T02:07:39;5.70;;;2.40;;
13720;SDS011;6932;51.438;5.470;2024-03-23T02:10:06;6.23;;;2.70;;
13720;SDS011;6932;51.438;5.470;2024-03-23T02:12:33;6.57;;;2.73;;
13720;SDS011;6932;51.438;5.470;2024-03-23T02:14:59;7.70;;;2.43;;
13720;SDS011;6932;51.438;5.470;2024-03-23T02:17:25;6.50;;;2.67;;
13720;SDS011;6932;51.438;5.470;2024-03-23T02:19:51;8.73;;;2.57;;
13720;SDS011;6932;51.438;5.470;2024-03-23T02:22:17;7.20;;;3.07;;
13720;SDS011;6932;51.438;5.470;2024-03-23T02:24:43;9.20;;;3.30;;
13720;SDS011;6932;51.438;5.470;2024-03-23T02:27:08;7.37;;;2.57;;
13720;SDS011;6932;51.438;5.470;2024-03-23T02:29:34;8.47;;;3.23;;
13720;SDS011;6932;51.438;5.470;2024-03-23T02:32:00;7.17;;;2.90;;
13720;SDS011;6932;51.438;5.470;2024-03-23T02:34:26;6.13;;;2.43;;
13720;SDS011;6932;51.438;5.470;2024-03-23T02:36:52;6.67;;;2.70;;
13720;SDS011;6932;51.438;5.470;2024-03-23T02:39:17;4.77;;;2.47;;
13720;SDS011;6932;51.438;5.470;2024-03-23T02:41:43;6.97;;;2.57;;
13720;SDS011;6932;51.438;5.470;2024-03-23T02:44:09;4.40;;;2.30;;
13720;SDS011;6932;51.438;5.470;2024-03-23T02:46:37;4.90;;;2.40;;
13720;SDS011;6932;51.438;5.470;2024-03-23T02:49:03;6.07;;;2.40;;
13720;SDS011;6932;51.438;5.470;2024-03-23T02:51:29;8.03;;;2.60;;
13720;SDS011;6932;51.438;5.470;2024-03-23T02:53:56;8.07;;;2.70;;
13720;SDS011;6932;51.438;5.470;2024-03-23T02:56:22;6.57;;;2.50;;
13720;SDS011;6932;51.438;5.470;2024-03-23T02:58:47;5.93;;;2.40;;
13720;SDS011;6932;51.438;5.470;2024-03-23T03:01:13;6.27;;;2.70;;
13720;SDS011;6932;51.438;5.470;2024-03-23T03:03:39;6.73;;;2.40;;
13720;SDS011;6932;51.438;5.470;2024-03-23T03:06:05;5.97;;;2.57;;
13720;SDS011;6932;51.438;5.470;2024-03-23T03:08:31;6.90;;;2.43;;
13720;SDS011;6932;51.438;5.470;2024-03-23T03:10:56;7.00;;;2.60;;
13720;SDS011;6932;51.438;5.470;2024-03-23T03:13:22;4.60;;;2.13;;
13720;SDS011;6932;51.438;5.470;2024-03-23T03:15:48;6.27;;;2.30;;
13720;SDS011;6932;51.438;5.470;2024-03-23T03:18:13;6.13;;;2.50;;
13720;SDS011;6932;51.438;5.470;2024-03-23T03:20:39;5.90;;;2.37;;
13720;SDS011;6932;51.438;5.470;2024-03-23T03:23:06;5.30;;;2.10;;
13720;SDS011;6932;51.438;5.470;2024-03-23T03:25:32;6.20;;;2.47;;
13720;SDS011;6932;51.438;5.470;2024-03-23T03:27:59;7.53;;;2.50;;
13720;SDS011;6932;51.438;5.470;2024-03-23T03:30:25;6.40;;;2.43;;
13720;SDS011;6932;51.438;5.470;2024-03-23T03:32:52;5.50;;;2.30;;
13720;SDS011;6932;51.438;5.470;2024-03-23T03:35:19;4.80;;;1.90;;
13720;SDS011;6932;51.438;5.470;2024-03-23T03:37:44;6.23;;;2.10;;
13720;SDS011;6932;51.438;5.470;2024-03-23T03:40:11;7.37;;;2.23;;
13720;SDS011;6932;51.438;5.470;2024-03-23T03:42:37;6.27;;;2.20;;
13720;SDS011;6932;51.438;5.470;2024-03-23T03:45:03;5.17;;;2.00;;
13720;SDS011;6932;51.438;5.470;2024-03-23T03:47:30;5.40;;;2.00;;
13720;SDS011;6932;51.438;5.470;2024-03-23T03:49:56;7.93;;;2.20;;
13720;SDS011;6932;51.438;5.470;2024-03-23T03:52:21;5.43;;;2.07;;
13720;SDS011;6932;51.438;5.470;2024-03-23T03:54:47;7.60;;;2.27;;
13720;SDS011;6932;51.438;5.470;2024-03-23T03:57:13;7.83;;;2.30;;
13720;SDS011;6932;51.438;5.470;2024-03-23T03:59:38;6.33;;;2.30;;
13720;SDS011;6932;51.438;5.470;2024-03-23T04:02:04;4.37;;;2.03;;
13720;SDS011;6932;51.438;5.470;2024-03-23T04:04:30;6.47;;;2.07;;
13720;SDS011;6932;51.438;5.470;2024-03-23T04:06:59;7.10;;;1.93;;
13720;SDS011;6932;51.438;5.470;2024-03-23T04:09:26;4.70;;;1.83;;
13720;SDS011;6932;51.438;5.470;2024-03-23T04:11:52;5.87;;;2.07;;
13720;SDS011;6932;51.438;5.470;2024-03-23T04:14:18;6.63;;;2.20;;
13720;SDS011;6932;51.438;5.470;2024-03-23T04:16:43;5.03;;;1.83;;
13720;SDS011;6932;51.438;5.470;2024-03-23T04:19:09;7.00;;;2.57;;
13720;SDS011;6932;51.438;5.470;2024-03-23T04:21:35;6.00;;;2.40;;
13720;SDS011;6932;51.438;5.470;2024-03-23T04:24:03;5.17;;;2.33;;
13720;SDS011;6932;51.438;5.470;2024-03-23T04:26:30;4.70;;;2.10;;
13720;SDS011;6932;51.438;5.470;2024-03-23T04:29:04;5.47;;;2.30;;
13720;SDS011;6932;51.438;5.470;2024-03-23T04:31:30;6.90;;;2.70;;
13720;SDS011;6932;51.438;5.470;2024-03-23T04:33:58;7.90;;;2.90;;
13720;SDS011;6932;51.438;5.470;2024-03-23T04:36:24;6.27;;;2.63;;
13720;SDS011;6932;51.438;5.470;2024-03-23T04:38:49;5.27;;;2.73;;
13720;SDS011;6932;51.438;5.470;2024-03-23T04:41:17;7.80;;;2.90;;
13720;SDS011;6932;51.438;5.470;2024-03-23T04:43:43;8.17;;;2.87;;
13720;SDS011;6932;51.438;5.470;2024-03-23T04:46:09;6.83;;;3.00;;
13720;SDS011;6932;51.438;5.470;2024-03-23T04:48:35;7.97;;;3.10;;
13720;SDS011;6932;51.438;5.470;2024-03-23T04:51:01;9.37;;;3.70;;
13720;SDS011;6932;51.438;5.470;2024-03-23T04:53:27;8.13;;;3.33;;
13720;SDS011;6932;51.438;5.470;2024-03-23T04:55:56;10.77;;;4.10;;
13720;SDS011;6932;51.438;5.470;2024-03-23T04:58:24;8.13;;;3.70;;
13720;SDS011;6932;51.438;5.470;2024-03-23T05:00:53;7.57;;;3.67;;
13720;SDS011;6932;51.438;5.470;2024-03-23T05:03:20;10.77;;;4.10;;
13720;SDS011;6932;51.438;5.470;2024-03-23T05:05:46;8.50;;;4.20;;
13720;SDS011;6932;51.438;5.470;2024-03-23T05:08:13;9.67;;;4.30;;
13720;SDS011;6932;51.438;5.470;2024-03-23T05:10:41;11.00;;;4.20;;
13720;SDS011;6932;51.438;5.470;2024-03-23T05:13:07;9.60;;;4.50;;
13720;SDS011;6932;51.438;5.470;2024-03-23T05:15:34;9.60;;;4.50;;
13720;SDS011;6932;51.438;5.470;2024-03-23T05:18:00;10.83;;;4.53;;
13720;SDS011;6932;51.438;5.470;2024-03-23T05:20:26;9.53;;;4.07;;
13720;SDS011;6932;51.438;5.470;2024-03-23T05:22:53;8.97;;;4.60;;
13720;SDS011;6932;51.438;5.470;2024-03-23T05:25:20;10.03;;;4.33;;
13720;SDS011;6932;51.438;5.470;2024-03-23T05:27:45;10.73;;;4.40;;
13720;SDS011;6932;51.438;5.470;2024-03-23T05:30:11;9.97;;;4.47;;
13720;SDS011;6932;51.438;5.470;2024-03-23T05:32:37;8.70;;;4.70;;
13720;SDS011;6932;51.438;5.470;2024-03-23T05:35:05;10.07;;;4.60;;
13720;SDS011;6932;51.438;5.470;2024-03-23T05:37:33;8.77;;;4.07;;
13720;SDS011;6932;51.438;5.470;2024-03-23T05:39:59;8.03;;;4.20;;
13720;SDS011;6932;51.438;5.470;2024-03-23T05:42:25;10.67;;;4.57;;
13720;SDS011;6932;51.438;5.470;2024-03-23T05:44:51;10.03;;;3.93;;
13720;SDS011;6932;51.438;5.470;2024-03-23T05:47:17;11.13;;;4.33;;
13720;SDS011;6932;51.438;5.470;2024-03-23T05:49:43;10.10;;;3.90;;
13720;SDS011;6932;51.438;5.470;2024-03-23T05:52:11;10.80;;;4.20;;
13720;SDS011;6932;51.438;5.470;2024-03-23T05:54:37;7.30;;;3.40;;
13720;SDS011;6932;51.438;5.470;2024-03-23T05:57:03;9.53;;;4.20;;
13720;SDS011;6932;51.438;5.470;2024-03-23T05:59:29;10.57;;;3.70;;
13720;SDS011;6932;51.438;5.470;2024-03-23T06:01:56;6.43;;;3.43;;
13720;SDS011;6932;51.438;5.470;2024-03-23T06:04:22;9.63;;;4.00;;
13720;SDS011;6932;51.438;5.470;2024-03-23T06:06:47;9.77;;;3.63;;
13720;SDS011;6932;51.438;5.470;2024-03-23T06:09:13;8.73;;;3.70;;
13720;SDS011;6932;51.438;5.470;2024-03-23T06:11:39;8.63;;;3.60;;
13720;SDS011;6932;51.438;5.470;2024-03-23T06:14:05;8.03;;;3.63;;
13720;SDS011;6932;51.438;5.470;2024-03-23T06:16:31;9.93;;;3.90;;
13720;SDS011;6932;51.438;5.470;2024-03-23T06:18:56;8.63;;;3.80;;
13720;SDS011;6932;51.438;5.470;2024-03-23T06:21:23;9.03;;;3.63;;
13720;SDS011;6932;51.438;5.470;2024-03-23T06:23:53;7.53;;;3.20;;
13720;SDS011;6932;51.438;5.470;2024-03-23T06:26:18;8.07;;;3.17;;
13720;SDS011;6932;51.438;5.470;2024-03-23T06:28:46;9.03;;;3.37;;
13720;SDS011;6932;51.438;5.470;2024-03-23T06:31:12;9.33;;;3.47;;
13720;SDS011;6932;51.438;5.470;2024-03-23T06:33:38;8.57;;;3.40;;
13720;SDS011;6932;51.438;5.470;2024-03-23T06:36:06;8.13;;;3.50;;
13720;SDS011;6932;51.438;5.470;2024-03-23T06:38:34;10.03;;;3.57;;
13720;SDS011;6932;51.438;5.470;2024-03-23T06:41:02;8.87;;;3.40;;
13720;SDS011;6932;51.438;5.470;2024-03-23T06:43:28;8.57;;;3.40;;
13720;SDS011;6932;51.438;5.470;2024-03-23T06:45:54;7.20;;;3.10;;
13720;SDS011;6932;51.438;5.470;2024-03-23T06:48:20;8.97;;;3.43;;
13720;SDS011;6932;51.438;5.470;2024-03-23T06:50:47;10.43;;;3.53;;
13720;SDS011;6932;51.438;5.470;2024-03-23T06:53:13;7.70;;;3.27;;
13720;SDS011;6932;51.438;5.470;2024-03-23T06:55:39;10.57;;;3.80;;
13720;SDS011;6932;51.438;5.470;2024-03-23T06:58:05;9.03;;;3.40;;
13720;SDS011;6932;51.438;5.470;2024-03-23T07:00:31;9.50;;;3.70;;
13720;SDS011;6932;51.438;5.470;2024-03-23T07:02:58;9.93;;;3.60;;
13720;SDS011;6932;51.438;5.470;2024-03-23T07:05:24;8.23;;;3.50;;
13720;SDS011;6932;51.438;5.470;2024-03-23T07:07:50;9.90;;;4.07;;
13720;SDS011;6932;51.438;5.470;2024-03-23T07:10:16;11.07;;;3.90;;
13720;SDS011;6932;51.438;5.470;2024-03-23T07:12:42;9.80;;;3.80;;
13720;SDS011;6932;51.438;5.470;2024-03-23T07:15:08;10.67;;;3.70;;
13720;SDS011;6932;51.438;5.470;2024-03-23T07:17:34;9.07;;;3.60;;
13720;SDS011;6932;51.438;5.470;2024-03-23T07:20:03;8.63;;;3.33;;
13720;SDS011;6932;51.438;5.470;2024-03-23T07:22:30;8.67;;;3.43;;
13720;SDS011;6932;51.438;5.470;2024-03-23T07:24:56;9.07;;;3.13;;
13720;SDS011;6932;51.438;5.470;2024-03-23T07:27:26;9.83;;;3.50;;
13720;SDS011;6932;51.438;5.470;2024-03-23T07:29:51;8.37;;;3.00;;
13720;SDS011;6932;51.438;5.470;2024-03-23T07:32:17;8.97;;;3.20;;
13720;SDS011;6932;51.438;5.470;2024-03-23T07:34:43;9.63;;;3.13;;
13720;SDS011;6932;51.438;5.470;2024-03-23T07:37:09;7.87;;;3.10;;
13720;SDS011;6932;51.438;5.470;2024-03-23T07:39:35;9.73;;;3.00;;
13720;SDS011;6932;51.438;5.470;2024-03-23T07:42:02;9.73;;;3.30;;
13720;SDS011;6932;51.438;5.470;2024-03-23T07:44:28;10.43;;;3.00;;
13720;SDS011;6932;51.438;5.470;2024-03-23T07:46:54;8.70;;;2.80;;
13720;SDS011;6932;51.438;5.470;2024-03-23T07:49:19;8.87;;;2.83;;
13720;SDS011;6932;51.438;5.470;2024-03-23T07:51:45;6.53;;;3.07;;
13720;SDS011;6932;51.438;5.470;2024-03-23T07:54:11;9.33;;;2.70;;
13720;SDS011;6932;51.438;5.470;2024-03-23T07:56:36;6.70;;;2.50;;
13720;SDS011;6932;51.438;5.470;2024-03-23T07:59:02;6.80;;;2.27;;
13720;SDS011;6932;51.438;5.470;2024-03-23T08:01:30;7.87;;;2.47;;
13720;SDS011;6932;51.438;5.470;2024-03-23T08:03:56;7.13;;;2.50;;
13720;SDS011;6932;51.438;5.470;2024-03-23T08:06:22;7.43;;;2.43;;
13720;SDS011;6932;51.438;5.470;2024-03-23T08:08:49;5.77;;;2.33;;
13720;SDS011;6932;51.438;5.470;2024-03-23T08:11:28;6.13;;;2.30;;
13720;SDS011;6932;51.438;5.470;2024-03-23T08:13:56;5.83;;;2.33;;
13720;SDS011;6932;51.438;5.470;2024-03-23T08:16:22;6.53;;;2.27;;
13720;SDS011;6932;51.438;5.470;2024-03-23T08:18:52;5.20;;;2.10;;
13720;SDS011;6932;51.438;5.470;2024-03-23T08:21:18;5.63;;;2.13;;
13720;SDS011;6932;51.438;5.470;2024-03-23T08:23:44;7.87;;;2.33;;
13720;SDS011;6932;51.438;5.470;2024-03-23T08:26:11;8.73;;;2.33;;
13720;SDS011;6932;51.438;5.470;2024-03-23T08:28:38;6.33;;;2.20;;
13720;SDS011;6932;51.438;5.470;2024-03-23T08:31:05;6.33;;;2.20;;
13720;SDS011;6932;51.438;5.470;2024-03-23T08:33:33;7.37;;;2.20;;
13720;SDS011;6932;51.438;5.470;2024-03-23T08:36:01;7.87;;;2.20;;
13720;SDS011;6932;51.438;5.470;2024-03-23T08:38:29;7.90;;;2.07;;
13720;SDS011;6932;51.438;5.470;2024-03-23T08:41:05;7.27;;;2.10;;
13720;SDS011;6932;51.438;5.470;2024-03-23T08:43:40;7.17;;;2.30;;
13720;SDS011;6932;51.438;5.470;2024-03-23T08:46:07;5.50;;;1.60;;
13720;SDS011;6932;51.438;5.470;2024-03-23T08:48:38;5.40;;;1.90;;
13720;SDS011;6932;51.438;5.470;2024-03-23T08:51:08;6.53;;;1.90;;
13720;SDS011;6932;51.438;5.470;2024-03-23T08:53:36;4.87;;;1.70;;
13720;SDS011;6932;51.438;5.470;2024-03-23T08:56:03;4.63;;;1.73;;
13720;SDS011;6932;51.438;5.470;2024-03-23T08:58:31;6.43;;;2.03;;
13720;SDS011;6932;51.438;5.470;2024-03-23T09:01:06;6.87;;;1.83;;
13720;SDS011;6932;51.438;5.470;2024-03-23T09:03:34;6.57;;;2.10;;
13720;SDS011;6932;51.438;5.470;2024-03-23T09:06:00;4.33;;;1.63;;
13720;SDS011;6932;51.438;5.470;2024-03-23T09:08:31;5.57;;;1.40;;
13720;SDS011;6932;51.438;5.470;2024-03-23T09:10:57;3.30;;;1.13;;
13720;SDS011;6932;51.438;5.470;2024-03-23T09:13:22;2.50;;;0.77;;
13720;SDS011;6932;51.438;5.470;2024-03-23T09:15:49;1.77;;;0.70;;
13720;SDS011;6932;51.438;5.470;2024-03-23T09:18:16;1.77;;;0.90;;
13720;SDS011;6932;51.438;5.470;2024-03-23T09:20:42;3.20;;;1.00;;
13720;SDS011;6932;51.438;5.470;2024-03-23T09:23:08;2.63;;;1.10;;
13720;SDS011;6932;51.438;5.470;2024-03-23T09:25:38;1.30;;;0.70;;
13720;SDS011;6932;51.438;5.470;2024-03-23T09:28:05;2.70;;;1.00;;
13720;SDS011;6932;51.438;5.470;2024-03-23T09:30:34;3.27;;;0.90;;
13720;SDS011;6932;51.438;5.470;2024-03-23T09:33:02;2.97;;;1.23;;
13720;SDS011;6932;51.438;5.470;2024-03-23T09:35:28;4.43;;;1.13;;
13720;SDS011;6932;51.438;5.470;2024-03-23T09:37:54;3.73;;;1.10;;
13720;SDS011;6932;51.438;5.470;2024-03-23T09:40:20;5.13;;;1.50;;
13720;SDS011;6932;51.438;5.470;2024-03-23T09:42:49;5.23;;;1.50;;
13720;SDS011;6932;51.438;5.470;2024-03-23T09:45:17;3.53;;;1.40;;
13720;SDS011;6932;51.438;5.470;2024-03-23T09:47:51;5.73;;;1.70;;
13720;SDS011;6932;51.438;5.470;2024-03-23T09:50:18;5.70;;;1.60;;
13720;SDS011;6932;51.438;5.470;2024-03-23T09:52:45;4.30;;;1.43;;
13720;SDS011;6932;51.438;5.470;2024-03-23T09:55:12;6.17;;;1.60;;
13720;SDS011;6932;51.438;5.470;2024-03-23T09:57:39;6.67;;;1.53;;
13720;SDS011;6932;51.438;5.470;2024-03-23T10:00:05;4.47;;;1.40;;
13720;SDS011;6932;51.438;5.470;2024-03-23T10:02:33;5.10;;;1.50;;
13720;SDS011;6932;51.438;5.470;2024-03-23T10:05:00;6.40;;;1.70;;
13720;SDS011;6932;51.438;5.470;2024-03-23T10:07:26;3.90;;;1.30;;
13720;SDS011;6932;51.438;5.470;2024-03-23T10:09:54;5.30;;;1.50;;
13720;SDS011;6932;51.438;5.470;2024-03-23T10:12:21;2.53;;;1.00;;
13720;SDS011;6932;51.438;5.470;2024-03-23T10:14:48;3.97;;;1.33;;
13720;SDS011;6932;51.438;5.470;2024-03-23T10:19:45;2.73;;;0.83;;
13720;SDS011;6932;51.438;5.470;2024-03-23T10:22:21;2.87;;;1.10;;
13720;SDS011;6932;51.438;5.470;2024-03-23T10:24:49;4.73;;;1.10;;
13720;SDS011;6932;51.438;5.470;2024-03-23T10:27:16;3.03;;;1.07;;
13720;SDS011;6932;51.438;5.470;2024-03-23T10:29:46;5.87;;;1.30;;
13720;SDS011;6932;51.438;5.470;2024-03-23T10:32:14;2.10;;;0.90;;
13720;SDS011;6932;51.438;5.470;2024-03-23T10:34:43;4.43;;;1.10;;
13720;SDS011;6932;51.438;5.470;2024-03-23T10:37:10;2.33;;;1.00;;
13720;SDS011;6932;51.438;5.470;2024-03-23T10:39:37;2.93;;;1.07;;
13720;SDS011;6932;51.438;5.470;2024-03-23T10:42:05;4.43;;;1.30;;
13720;SDS011;6932;51.438;5.470;2024-03-23T10:44:32;2.00;;;0.97;;
13720;SDS011;6932;51.438;5.470;2024-03-23T10:47:00;3.53;;;1.10;;
13720;SDS011;6932;51.438;5.470;2024-03-23T10:49:28;3.40;;;1.23;;
13720;SDS011;6932;51.438;5.470;2024-03-23T10:51:57;3.00;;;1.10;;
13720;SDS011;6932;51.438;5.470;2024-03-23T10:54:30;5.57;;;1.60;;
13720;SDS011;6932;51.438;5.470;2024-03-23T10:57:05;4.37;;;1.60;;
13720;SDS011;6932;51.438;5.470;2024-03-23T10:59:39;5.63;;;1.40;;
13720;SDS011;6932;51.438;5.470;2024-03-23T11:02:06;3.63;;;1.30;;
13720;SDS011;6932;51.438;5.470;2024-03-23T11:04:34;4.27;;;1.50;;
13720;SDS011;6932;51.438;5.470;2024-03-23T11:07:01;3.87;;;1.60;;
13720;SDS011;6932;51.438;5.470;2024-03-23T11:09:42;4.63;;;1.70;;
13720;SDS011;6932;51.438;5.470;2024-03-23T11:12:18;4.97;;;1.73;;
13720;SDS011;6932;51.438;5.470;2024-03-23T11:15:04;4.30;;;1.60;;
13720;SDS011;6932;51.438;5.470;2024-03-23T11:17:36;6.70;;;1.80;;
13720;SDS011;6932;51.438;5.470;2024-03-23T11:22:45;4.67;;;1.80;;
13720;SDS011;6932;51.438;5.470;2024-03-23T11:25:22;4.87;;;1.60;;
13720;SDS011;6932;51.438;5.470;2024-03-23T11:27:52;5.83;;;1.50;;
13720;SDS011;6932;51.438;5.470;2024-03-23T11:30:23;2.73;;;1.10;;
13720;SDS011;6932;51.438;5.470;2024-03-23T11:32:53;3.00;;;1.10;;
13720;SDS011;6932;51.438;5.470;2024-03-23T11:35:38;3.87;;;1.07;;
13720;SDS011;6932;51.438;5.470;2024-03-23T11:40:45;3.53;;;1.10;;
13720;SDS011;6932;51.438;5.470;2024-03-23T11:43:13;2.30;;;1.03;;
13720;SDS011;6932;51.438;5.470;2024-03-23T11:45:44;3.03;;;1.10;;
13720;SDS011;6932;51.438;5.470;2024-03-23T11:48:19;1.80;;;0.83;;
13720;SDS011;6932;51.438;5.470;2024-03-23T11:50:47;3.40;;;0.93;;
13720;SDS011;6932;51.438;5.470;2024-03-23T11:53:22;3.27;;;0.70;;
13720;SDS011;6932;51.438;5.470;2024-03-23T11:55:55;2.93;;;0.90;;
13720;SDS011;6932;51.438;5.470;2024-03-23T11:58:25;1.63;;;0.60;;
13720;SDS011;6932;51.438;5.470;2024-03-23T12:00:58;1.10;;;0.53;;
13720;SDS011;6932;51.438;5.470;2024-03-23T12:03:30;1.30;;;0.60;;
13720;SDS011;6932;51.438;5.470;2024-03-23T12:06:00;2.77;;;0.80;;
13720;SDS011;6932;51.438;5.470;2024-03-23T12:08:34;1.30;;;0.60;;
13720;SDS011;6932;51.438;5.470;2024-03-23T12:11:05;2.20;;;0.70;;
13720;SDS011;6932;51.438;5.470;2024-03-23T12:13:31;4.07;;;1.20;;
13720;SDS011;6932;51.438;5.470;2024-03-23T12:16:09;3.47;;;1.10;;
13720;SDS011;6932;51.438;5.470;2024-03-23T12:18:35;2.67;;;1.03;;
13720;SDS011;6932;51.438;5.470;2024-03-23T12:21:02;2.33;;;0.80;;
13720;SDS011;6932;51.438;5.470;2024-03-23T12:23:28;2.47;;;1.17;;
13720;SDS011;6932;51.438;5.470;2024-03-23T12:25:54;3.73;;;1.20;;
13720;SDS011;6932;51.438;5.470;2024-03-23T12:28:19;3.97;;;1.03;;
13720;SDS011;6932;51.438;5.470;2024-03-23T12:30:45;3.03;;;1.07;;
13720;SDS011;6932;51.438;5.470;2024-03-23T12:33:11;5.90;;;1.20;;
13720;SDS011;6932;51.438;5.470;2024-03-23T12:35:37;2.30;;;0.80;;
13720;SDS011;6932;51.438;5.470;2024-03-23T12:38:02;3.00;;;1.07;;
13720;SDS011;6932;51.438;5.470;2024-03-23T12:40:28;5.70;;;1.20;;
13720;SDS011;6932;51.438;5.470;2024-03-23T12:42:54;3.10;;;1.17;;
13720;SDS011;6932;51.438;5.470;2024-03-23T12:45:23;2.53;;;1.00;;
13720;SDS011;6932;51.438;5.470;2024-03-23T12:47:49;0.90;;;0.73;;
13720;SDS011;6932;51.438;5.470;2024-03-23T12:50:17;1.47;;;0.70;;
13720;SDS011;6932;51.438;5.470;2024-03-23T12:52:43;2.47;;;0.70;;
13720;SDS011;6932;51.438;5.470;2024-03-23T12:55:09;1.23;;;0.63;;
13720;SDS011;6932;51.438;5.470;2024-03-23T12:57:34;1.03;;;0.50;;
13720;SDS011;6932;51.438;5.470;2024-03-23T13:00:01;2.77;;;0.70;;
13720;SDS011;6932;51.438;5.470;2024-03-23T13:02:28;0.33;;;0.30;;
13720;SDS011;6932;51.438;5.470;2024-03-23T13:04:54;2.30;;;0.57;;
13720;SDS011;6932;51.438;5.470;2024-03-23T13:07:21;1.20;;;0.40;;
13720;SDS011;6932;51.438;5.470;2024-03-23T13:09:51;1.30;;;0.53;;
13720;SDS011;6932;51.438;5.470;2024-03-23T13:12:18;1.77;;;0.70;;
13720;SDS011;6932;51.438;5.470;2024-03-23T13:14:45;0.33;;;0.30;;
13720;SDS011;6932;51.438;5.470;2024-03-23T13:17:12;1.73;;;0.60;;
13720;SDS011;6932;51.438;5.470;2024-03-23T13:19:38;1.93;;;1.00;;
13720;SDS011;6932;51.438;5.470;2024-03-23T13:22:04;2.27;;;0.83;;
13720;SDS011;6932;51.438;5.470;2024-03-23T13:24:30;3.33;;;1.00;;
13720;SDS011;6932;51.438;5.470;2024-03-23T13:26:56;4.17;;;1.20;;
13720;SDS011;6932;51.438;5.470;2024-03-23T13:29:23;5.37;;;1.27;;
13720;SDS011;6932;51.438;5.470;2024-03-23T13:31:50;10.23;;;1.30;;
13720;SDS011;6932;51.438;5.470;2024-03-23T13:34:17;2.30;;;0.80;;
13720;SDS011;6932;51.438;5.470;2024-03-23T13:36:44;1.67;;;0.80;;
13720;SDS011;6932;51.438;5.470;2024-03-23T13:39:11;1.40;;;0.73;;
13720;SDS011;6932;51.438;5.470;2024-03-23T13:41:39;2.03;;;0.90;;
13720;SDS011;6932;51.438;5.470;2024-03-23T13:44:14;2.57;;;0.93;;
13720;SDS011;6932;51.438;5.470;2024-03-23T13:46:41;1.43;;;0.70;;
13720;SDS011;6932;51.438;5.470;2024-03-23T13:49:13;2.50;;;0.77;;
13720;SDS011;6932;51.438;5.470;2024-03-23T13:51:49;2.67;;;0.87;;
13720;SDS011;6932;51.438;5.470;2024-03-23T13:54:15;2.47;;;0.90;;
13720;SDS011;6932;51.438;5.470;2024-03-23T13:56:41;2.93;;;0.97;;
13720;SDS011;6932;51.438;5.470;2024-03-23T13:59:06;1.87;;;1.13;;
13720;SDS011;6932;51.438;5.470;2024-03-23T14:01:32;2.90;;;1.17;;
13720;SDS011;6932;51.438;5.470;2024-03-23T14:03:58;3.70;;;1.30;;
13720;SDS011;6932;51.438;5.470;2024-03-23T14:06:24;4.43;;;1.13;;
13720;SDS011;6932;51.438;5.470;2024-03-23T14:08:49;4.47;;;1.43;;
13720;SDS011;6932;51.438;5.470;2024-03-23T14:11:17;3.37;;;1.27;;
13720;SDS011;6932;51.438;5.470;2024-03-23T14:13:43;5.70;;;1.50;;
13720;SDS011;6932;51.438;5.470;2024-03-23T14:16:09;5.77;;;1.87;;
13720;SDS011;6932;51.438;5.470;2024-03-23T14:18:35;2.87;;;1.27;;
13720;SDS011;6932;51.438;5.470;2024-03-23T14:21:01;7.07;;;1.90;;
13720;SDS011;6932;51.438;5.470;2024-03-23T14:23:28;4.47;;;1.60;;
13720;SDS011;6932;51.438;5.470;2024-03-23T14:25:58;2.73;;;1.40;;
13720;SDS011;6932;51.438;5.470;2024-03-23T14:28:24;6.93;;;1.70;;
13720;SDS011;6932;51.438;5.470;2024-03-23T14:30:50;4.80;;;1.70;;
13720;SDS011;6932;51.438;5.470;2024-03-23T14:33:20;4.53;;;1.83;;
13720;SDS011;6932;51.438;5.470;2024-03-23T14:35:52;3.23;;;1.53;;
13720;SDS011;6932;51.438;5.470;2024-03-23T14:38:24;5.53;;;1.93;;
13720;SDS011;6932;51.438;5.470;2024-03-23T14:40:50;7.33;;;2.83;;
13720;SDS011;6932;51.438;5.470;2024-03-23T14:43:19;3.73;;;1.77;;
13720;SDS011;6932;51.438;5.470;2024-03-23T14:46:05;3.83;;;1.30;;
13720;SDS011;6932;51.438;5.470;2024-03-23T14:48:36;3.53;;;1.50;;
13720;SDS011;6932;51.438;5.470;2024-03-23T14:51:02;2.97;;;1.13;;
13720;SDS011;6932;51.438;5.470;2024-03-23T14:53:31;4.50;;;1.13;;
13720;SDS011;6932;51.438;5.470;2024-03-23T14:55:58;3.20;;;1.40;;
13720;SDS011;6932;51.438;5.470;2024-03-23T14:58:27;2.50;;;1.07;;
13720;SDS011;6932;51.438;5.470;2024-03-23T15:01:15;3.23;;;1.37;;
13720;SDS011;6932;51.438;5.470;2024-03-23T15:03:40;2.87;;;1.23;;
13720;SDS011;6932;51.438;5.470;2024-03-23T15:06:08;3.73;;;1.57;;
13720;SDS011;6932;51.438;5.470;2024-03-23T15:08:34;5.70;;;1.33;;
13720;SDS011;6932;51.438;5.470;2024-03-23T15:11:01;2.97;;;1.30;;
13720;SDS011;6932;51.438;5.470;2024-03-23T15:13:30;5.10;;;1.70;;
13720;SDS011;6932;51.438;5.470;2024-03-23T15:16:00;2.50;;;1.30;;
13720;SDS011;6932;51.438;5.470;2024-03-23T15:18:28;4.10;;;1.30;;
13720;SDS011;6932;51.438;5.470;2024-03-23T15:20:55;4.57;;;1.30;;
13720;SDS011;6932;51.438;5.470;2024-03-23T15:23:22;2.20;;;1.20;;
13720;SDS011;6932;51.438;5.470;2024-03-23T15:25:55;3.97;;;1.37;;
13720;SDS011;6932;51.438;5.470;2024-03-23T15:28:26;3.07;;;1.30;;
13720;SDS011;6932;51.438;5.470;2024-03-23T15:31:03;2.37;;;1.37;;
13720;SDS011;6932;51.438;5.470;2024-03-23T15:33:32;2.43;;;1.10;;
13720;SDS011;6932;51.438;5.470;2024-03-23T15:35:59;3.77;;;1.10;;
13720;SDS011;6932;51.438;5.470;2024-03-23T15:38:25;2.20;;;0.90;;
13720;SDS011;6932;51.438;5.470;2024-03-23T15:40:54;2.37;;;0.70;;
13720;SDS011;6932;51.438;5.470;2024-03-23T15:43:19;1.73;;;0.60;;
13720;SDS011;6932;51.438;5.470;2024-03-23T15:45:58;1.77;;;0.77;;
13720;SDS011;6932;51.438;5.470;2024-03-23T15:48:26;1.87;;;0.70;;
13720;SDS011;6932;51.438;5.470;2024-03-23T15:50:53;0.90;;;0.50;;
13720;SDS011;6932;51.438;5.470;2024-03-23T15:53:21;1.87;;;0.77;;
13720;SDS011;6932;51.438;5.470;2024-03-23T15:55:54;1.47;;;0.70;;
13720;SDS011;6932;51.438;5.470;2024-03-23T15:58:28;3.00;;;0.63;;
13720;SDS011;6932;51.438;5.470;2024-03-23T16:01:06;3.57;;;0.87;;
13720;SDS011;6932;51.438;5.470;2024-03-23T16:03:36;1.77;;;0.80;;